sensor_id;sensor_type;location;lat;lon;timestamp;P1;durP1;ratioP1;P2;durP2;ratioP2
59024;SDS011;44806;48.008;13.666;2023-07-02T00:01:55;4.82;;;1.80;;
59024;SDS011;44806;48.008;13.666;2023-07-02T00:04:22;4.90;;;2.03;;
59024;SDS011;44806;48.008;13.666;2023-07-02T00:06:50;5.60;;;2.03;;
59024;SDS011;44806;48.008;13.666;2023-07-02T00:09:17;4.55;;;2.20;;
59024;SDS011;44806;48.008;13.666;2023-07-02T00:11:45;5.85;;;2.20;;
59024;SDS011;44806;48.008;13.666;2023-07-02T00:14:12;6.93;;;2.15;;
59024;SDS011;44806;48.008;13.666;2023-07-02T00:16:42;4.93;;;2.13;;
59024;SDS011;44806;48.008;13.666;2023-07-02T00:19:10;5.47;;;2.38;;
59024;SDS011;44806;48.008;13.666;2023-07-02T00:21:37;4.68;;;1.88;;
59024;SDS011;44806;48.008;13.666;2023-07-02T00:24:07;4.82;;;2.10;;
59024;SDS011;44806;48.008;13.666;2023-07-02T00:26:34;6.55;;;2.80;;
59024;SDS011;44806;48.008;13.666;2023-07-02T00:29:03;4.80;;;1.98;;
59024;SDS011;44806;48.008;13.666;2023-07-02T00:31:31;5.03;;;2.03;;
59024;SDS011;44806;48.008;13.666;2023-07-02T00:33:58;9.27;;;2.20;;
59024;SDS011;44806;48.008;13.666;2023-07-02T00:36:26;5.25;;;1.80;;
59024;SDS011;44806;48.008;13.666;2023-07-02T00:38:53;11.93;;;2.70;;
59024;SDS011;44806;48.008;13.666;2023-07-02T00:41:22;4.15;;;1.50;;
59024;SDS011;44806;48.008;13.666;2023-07-02T00:43:49;7.60;;;2.10;;
59024;SDS011;44806;48.008;13.666;2023-07-02T00:46:20;5.75;;;2.42;;
59024;SDS011;44806;48.008;13.666;2023-07-02T00:48:50;4.78;;;1.90;;
59024;SDS011;44806;48.008;13.666;2023-07-02T00:51:19;4.30;;;1.90;;
59024;SDS011;44806;48.008;13.666;2023-07-02T00:53:47;5.55;;;2.15;;
59024;SDS011;44806;48.008;13.666;2023-07-02T00:56:15;4.88;;;1.92;;
59024;SDS011;44806;48.008;13.666;2023-07-02T00:58:45;5.43;;;1.75;;
59024;SDS011;44806;48.008;13.666;2023-07-02T01:01:16;7.50;;;1.90;;
59024;SDS011;44806;48.008;13.666;2023-07-02T01:03:50;6.13;;;2.03;;
59024;SDS011;44806;48.008;13.666;2023-07-02T01:06:19;6.40;;;1.90;;
59024;SDS011;44806;48.008;13.666;2023-07-02T01:08:50;6.93;;;2.20;;
59024;SDS011;44806;48.008;13.666;2023-07-02T01:11:19;5.13;;;2.15;;
59024;SDS011;44806;48.008;13.666;2023-07-02T01:13:51;5.43;;;2.08;;
59024;SDS011;44806;48.008;13.666;2023-07-02T01:16:21;4.13;;;1.73;;
59024;SDS011;44806;48.008;13.666;2023-07-02T01:18:49;5.35;;;2.20;;
59024;SDS011;44806;48.008;13.666;2023-07-02T01:21:21;4.47;;;1.65;;
59024;SDS011;44806;48.008;13.666;2023-07-02T01:23:49;7.55;;;2.10;;
59024;SDS011;44806;48.008;13.666;2023-07-02T01:26:16;4.43;;;1.70;;
59024;SDS011;44806;48.008;13.666;2023-07-02T01:28:43;4.25;;;1.95;;
59024;SDS011;44806;48.008;13.666;2023-07-02T01:31:10;4.57;;;2.00;;
59024;SDS011;44806;48.008;13.666;2023-07-02T01:33:37;5.55;;;2.08;;
59024;SDS011;44806;48.008;13.666;2023-07-02T01:36:04;4.35;;;1.83;;
59024;SDS011;44806;48.008;13.666;2023-07-02T01:38:33;17.15;;;2.33;;
59024;SDS011;44806;48.008;13.666;2023-07-02T01:41:00;5.53;;;1.98;;
59024;SDS011;44806;48.008;13.666;2023-07-02T01:43:27;3.78;;;1.70;;
59024;SDS011;44806;48.008;13.666;2023-07-02T01:45:54;7.63;;;2.17;;
59024;SDS011;44806;48.008;13.666;2023-07-02T01:48:22;4.80;;;1.88;;
59024;SDS011;44806;48.008;13.666;2023-07-02T01:50:49;7.18;;;1.90;;
59024;SDS011;44806;48.008;13.666;2023-07-02T01:53:16;4.10;;;1.63;;
59024;SDS011;44806;48.008;13.666;2023-07-02T01:55:44;5.78;;;2.10;;
59024;SDS011;44806;48.008;13.666;2023-07-02T01:58:11;5.05;;;1.85;;
59024;SDS011;44806;48.008;13.666;2023-07-02T02:00:38;4.10;;;1.65;;
59024;SDS011;44806;48.008;13.666;2023-07-02T02:03:05;4.38;;;1.65;;
59024;SDS011;44806;48.008;13.666;2023-07-02T02:05:32;3.67;;;1.65;;
59024;SDS011;44806;48.008;13.666;2023-07-02T02:08:00;3.42;;;1.50;;
59024;SDS011;44806;48.008;13.666;2023-07-02T02:10:27;3.97;;;1.90;;
59024;SDS011;44806;48.008;13.666;2023-07-02T02:12:55;5.13;;;2.10;;
59024;SDS011;44806;48.008;13.666;2023-07-02T02:15:22;4.07;;;1.70;;
59024;SDS011;44806;48.008;13.666;2023-07-02T02:17:49;4.10;;;1.77;;
59024;SDS011;44806;48.008;13.666;2023-07-02T02:20:16;4.00;;;1.60;;
59024;SDS011;44806;48.008;13.666;2023-07-02T02:22:43;5.28;;;1.50;;
59024;SDS011;44806;48.008;13.666;2023-07-02T02:25:10;4.53;;;1.75;;
59024;SDS011;44806;48.008;13.666;2023-07-02T02:27:37;3.65;;;1.60;;
59024;SDS011;44806;48.008;13.666;2023-07-02T02:30:06;4.97;;;1.77;;
59024;SDS011;44806;48.008;13.666;2023-07-02T02:32:33;3.42;;;1.42;;
59024;SDS011;44806;48.008;13.666;2023-07-02T02:35:01;3.35;;;1.40;;
59024;SDS011;44806;48.008;13.666;2023-07-02T02:37:29;5.30;;;1.33;;
59024;SDS011;44806;48.008;13.666;2023-07-02T02:39:57;3.85;;;1.30;;
59024;SDS011;44806;48.008;13.666;2023-07-02T02:42:24;4.28;;;1.50;;
59024;SDS011;44806;48.008;13.666;2023-07-02T02:44:51;3.88;;;1.58;;
59024;SDS011;44806;48.008;13.666;2023-07-02T02:47:20;5.68;;;1.30;;
59024;SDS011;44806;48.008;13.666;2023-07-02T02:49:47;4.88;;;1.60;;
59024;SDS011;44806;48.008;13.666;2023-07-02T02:52:13;4.78;;;1.40;;
59024;SDS011;44806;48.008;13.666;2023-07-02T02:54:40;3.20;;;1.50;;
59024;SDS011;44806;48.008;13.666;2023-07-02T02:57:07;3.47;;;1.40;;
59024;SDS011;44806;48.008;13.666;2023-07-02T02:59:34;5.07;;;1.83;;
59024;SDS011;44806;48.008;13.666;2023-07-02T03:02:01;3.30;;;1.30;;
59024;SDS011;44806;48.008;13.666;2023-07-02T03:04:30;3.60;;;1.38;;
59024;SDS011;44806;48.008;13.666;2023-07-02T03:06:57;4.07;;;1.75;;
59024;SDS011;44806;48.008;13.666;2023-07-02T03:09:24;9.52;;;1.92;;
59024;SDS011;44806;48.008;13.666;2023-07-02T03:11:51;3.00;;;1.38;;
59024;SDS011;44806;48.008;13.666;2023-07-02T03:14:18;6.22;;;1.98;;
59024;SDS011;44806;48.008;13.666;2023-07-02T03:16:45;4.20;;;1.60;;
59024;SDS011;44806;48.008;13.666;2023-07-02T03:19:12;3.88;;;1.40;;
59024;SDS011;44806;48.008;13.666;2023-07-02T03:21:43;4.60;;;1.30;;
59024;SDS011;44806;48.008;13.666;2023-07-02T03:24:10;3.25;;;1.20;;
59024;SDS011;44806;48.008;13.666;2023-07-02T03:26:38;3.45;;;1.13;;
59024;SDS011;44806;48.008;13.666;2023-07-02T03:29:05;3.13;;;1.58;;
59024;SDS011;44806;48.008;13.666;2023-07-02T03:31:32;3.13;;;1.23;;
59024;SDS011;44806;48.008;13.666;2023-07-02T03:34:01;4.72;;;1.45;;
59024;SDS011;44806;48.008;13.666;2023-07-02T03:36:29;2.90;;;1.25;;
59024;SDS011;44806;48.008;13.666;2023-07-02T03:38:58;5.72;;;1.80;;
59024;SDS011;44806;48.008;13.666;2023-07-02T03:41:25;3.20;;;1.42;;
59024;SDS011;44806;48.008;13.666;2023-07-02T03:43:51;2.75;;;1.33;;
59024;SDS011;44806;48.008;13.666;2023-07-02T03:46:18;5.47;;;1.88;;
59024;SDS011;44806;48.008;13.666;2023-07-02T03:48:45;3.13;;;1.40;;
59024;SDS011;44806;48.008;13.666;2023-07-02T03:51:12;5.68;;;2.25;;
59024;SDS011;44806;48.008;13.666;2023-07-02T03:53:40;3.85;;;1.20;;
59024;SDS011;44806;48.008;13.666;2023-07-02T03:56:09;3.35;;;1.30;;
59024;SDS011;44806;48.008;13.666;2023-07-02T03:58:35;5.43;;;1.65;;
59024;SDS011;44806;48.008;13.666;2023-07-02T04:01:02;4.30;;;1.55;;
59024;SDS011;44806;48.008;13.666;2023-07-02T04:03:29;4.45;;;1.65;;
59024;SDS011;44806;48.008;13.666;2023-07-02T04:05:56;3.70;;;1.30;;
59024;SDS011;44806;48.008;13.666;2023-07-02T04:08:23;3.28;;;1.40;;
59024;SDS011;44806;48.008;13.666;2023-07-02T04:10:50;3.60;;;1.45;;
59024;SDS011;44806;48.008;13.666;2023-07-02T04:13:19;4.38;;;1.30;;
59024;SDS011;44806;48.008;13.666;2023-07-02T04:15:46;3.88;;;1.58;;
59024;SDS011;44806;48.008;13.666;2023-07-02T04:18:14;3.30;;;1.30;;
59024;SDS011;44806;48.008;13.666;2023-07-02T04:20:41;5.00;;;1.80;;
59024;SDS011;44806;48.008;13.666;2023-07-02T04:23:07;3.03;;;1.20;;
59024;SDS011;44806;48.008;13.666;2023-07-02T04:25:34;3.33;;;1.38;;
59024;SDS011;44806;48.008;13.666;2023-07-02T04:28:01;2.13;;;0.95;;
59024;SDS011;44806;48.008;13.666;2023-07-02T04:30:30;5.15;;;1.50;;
59024;SDS011;44806;48.008;13.666;2023-07-02T04:32:57;3.20;;;1.42;;
59024;SDS011;44806;48.008;13.666;2023-07-02T04:35:24;3.38;;;1.20;;
59024;SDS011;44806;48.008;13.666;2023-07-02T04:37:51;3.55;;;1.42;;
59024;SDS011;44806;48.008;13.666;2023-07-02T04:40:18;2.67;;;1.25;;
59024;SDS011;44806;48.008;13.666;2023-07-02T04:42:45;2.97;;;1.10;;
59024;SDS011;44806;48.008;13.666;2023-07-02T04:45:12;3.05;;;1.20;;
59024;SDS011;44806;48.008;13.666;2023-07-02T04:47:42;2.92;;;1.17;;
59024;SDS011;44806;48.008;13.666;2023-07-02T04:50:09;2.97;;;1.20;;
59024;SDS011;44806;48.008;13.666;2023-07-02T04:52:37;2.53;;;1.20;;
59024;SDS011;44806;48.008;13.666;2023-07-02T04:55:04;3.08;;;1.40;;
59024;SDS011;44806;48.008;13.666;2023-07-02T04:57:32;3.22;;;1.30;;
59024;SDS011;44806;48.008;13.666;2023-07-02T04:59:59;5.47;;;1.17;;
59024;SDS011;44806;48.008;13.666;2023-07-02T05:02:26;2.65;;;1.00;;
59024;SDS011;44806;48.008;13.666;2023-07-02T05:04:55;2.45;;;1.00;;
59024;SDS011;44806;48.008;13.666;2023-07-02T05:07:21;3.15;;;1.10;;
59024;SDS011;44806;48.008;13.666;2023-07-02T05:09:48;4.45;;;1.10;;
59024;SDS011;44806;48.008;13.666;2023-07-02T05:12:17;2.90;;;0.98;;
59024;SDS011;44806;48.008;13.666;2023-07-02T05:14:44;1.98;;;0.90;;
59024;SDS011;44806;48.008;13.666;2023-07-02T05:17:11;1.95;;;0.80;;
59024;SDS011;44806;48.008;13.666;2023-07-02T05:19:39;2.30;;;0.95;;
59024;SDS011;44806;48.008;13.666;2023-07-02T05:22:09;1.98;;;0.70;;
59024;SDS011;44806;48.008;13.666;2023-07-02T05:24:36;2.17;;;0.90;;
59024;SDS011;44806;48.008;13.666;2023-07-02T05:27:05;1.83;;;0.95;;
59024;SDS011;44806;48.008;13.666;2023-07-02T05:29:33;2.38;;;0.90;;
59024;SDS011;44806;48.008;13.666;2023-07-02T05:31:59;2.95;;;1.10;;
59024;SDS011;44806;48.008;13.666;2023-07-02T05:34:26;1.92;;;0.82;;
59024;SDS011;44806;48.008;13.666;2023-07-02T05:36:53;2.03;;;0.88;;
59024;SDS011;44806;48.008;13.666;2023-07-02T05:39:22;2.22;;;0.85;;
59024;SDS011;44806;48.008;13.666;2023-07-02T05:41:49;2.20;;;0.90;;
59024;SDS011;44806;48.008;13.666;2023-07-02T05:44:16;2.03;;;0.80;;
59024;SDS011;44806;48.008;13.666;2023-07-02T05:46:43;2.97;;;0.98;;
59024;SDS011;44806;48.008;13.666;2023-07-02T05:49:10;2.47;;;0.93;;
59024;SDS011;44806;48.008;13.666;2023-07-02T05:51:37;3.00;;;1.00;;
59024;SDS011;44806;48.008;13.666;2023-07-02T05:54:04;2.67;;;0.95;;
59024;SDS011;44806;48.008;13.666;2023-07-02T05:56:33;2.20;;;1.00;;
59024;SDS011;44806;48.008;13.666;2023-07-02T05:59:00;2.13;;;0.90;;
59024;SDS011;44806;48.008;13.666;2023-07-02T06:01:27;3.08;;;1.20;;
59024;SDS011;44806;48.008;13.666;2023-07-02T06:03:54;2.65;;;1.10;;
59024;SDS011;44806;48.008;13.666;2023-07-02T06:06:21;4.35;;;1.10;;
59024;SDS011;44806;48.008;13.666;2023-07-02T06:08:49;3.13;;;0.90;;
59024;SDS011;44806;48.008;13.666;2023-07-02T06:11:16;3.80;;;1.20;;
59024;SDS011;44806;48.008;13.666;2023-07-02T06:13:45;3.13;;;1.23;;
59024;SDS011;44806;48.008;13.666;2023-07-02T06:16:12;3.45;;;1.00;;
59024;SDS011;44806;48.008;13.666;2023-07-02T06:18:38;3.60;;;1.02;;
59024;SDS011;44806;48.008;13.666;2023-07-02T06:21:06;2.67;;;1.08;;
59024;SDS011;44806;48.008;13.666;2023-07-02T06:23:40;2.42;;;1.10;;
59024;SDS011;44806;48.008;13.666;2023-07-02T06:26:08;2.67;;;1.10;;
59024;SDS011;44806;48.008;13.666;2023-07-02T06:28:35;4.10;;;1.08;;
59024;SDS011;44806;48.008;13.666;2023-07-02T06:31:03;4.13;;;1.30;;
59024;SDS011;44806;48.008;13.666;2023-07-02T06:33:30;2.92;;;1.20;;
59024;SDS011;44806;48.008;13.666;2023-07-02T06:35:57;2.88;;;1.20;;
59024;SDS011;44806;48.008;13.666;2023-07-02T06:38:24;4.35;;;1.15;;
59024;SDS011;44806;48.008;13.666;2023-07-02T06:40:51;3.55;;;1.30;;
59024;SDS011;44806;48.008;13.666;2023-07-02T06:43:18;4.13;;;1.30;;
59024;SDS011;44806;48.008;13.666;2023-07-02T06:45:45;3.63;;;1.27;;
59024;SDS011;44806;48.008;13.666;2023-07-02T06:48:13;7.60;;;1.55;;
59024;SDS011;44806;48.008;13.666;2023-07-02T06:50:43;3.70;;;1.30;;
59024;SDS011;44806;48.008;13.666;2023-07-02T06:53:11;3.03;;;1.48;;
59024;SDS011;44806;48.008;13.666;2023-07-02T06:55:38;3.67;;;1.20;;
59024;SDS011;44806;48.008;13.666;2023-07-02T06:58:05;4.43;;;1.52;;
59024;SDS011;44806;48.008;13.666;2023-07-02T07:00:32;4.03;;;1.58;;
59024;SDS011;44806;48.008;13.666;2023-07-02T07:03:00;2.92;;;1.25;;
59024;SDS011;44806;48.008;13.666;2023-07-02T07:05:29;4.60;;;1.42;;
59024;SDS011;44806;48.008;13.666;2023-07-02T07:07:57;3.17;;;1.23;;
59024;SDS011;44806;48.008;13.666;2023-07-02T07:10:25;2.72;;;1.10;;
59024;SDS011;44806;48.008;13.666;2023-07-02T07:12:52;3.90;;;1.25;;
59024;SDS011;44806;48.008;13.666;2023-07-02T07:15:20;4.95;;;1.27;;
59024;SDS011;44806;48.008;13.666;2023-07-02T07:17:47;5.63;;;1.40;;
59024;SDS011;44806;48.008;13.666;2023-07-02T07:20:14;3.17;;;1.23;;
59024;SDS011;44806;48.008;13.666;2023-07-02T07:22:42;2.85;;;1.10;;
59024;SDS011;44806;48.008;13.666;2023-07-02T07:25:09;5.00;;;1.25;;
59024;SDS011;44806;48.008;13.666;2023-07-02T07:27:36;2.85;;;1.10;;
59024;SDS011;44806;48.008;13.666;2023-07-02T07:30:03;3.70;;;1.27;;
59024;SDS011;44806;48.008;13.666;2023-07-02T07:32:31;3.05;;;1.08;;
59024;SDS011;44806;48.008;13.666;2023-07-02T07:34:58;4.18;;;1.55;;
59024;SDS011;44806;48.008;13.666;2023-07-02T07:37:25;2.95;;;1.08;;
59024;SDS011;44806;48.008;13.666;2023-07-02T07:39:53;4.68;;;1.80;;
59024;SDS011;44806;48.008;13.666;2023-07-02T07:42:20;6.13;;;1.67;;
59024;SDS011;44806;48.008;13.666;2023-07-02T07:44:48;4.85;;;1.50;;
59024;SDS011;44806;48.008;13.666;2023-07-02T07:47:14;4.60;;;1.70;;
59024;SDS011;44806;48.008;13.666;2023-07-02T07:49:41;4.95;;;1.70;;
59024;SDS011;44806;48.008;13.666;2023-07-02T07:52:09;2.72;;;1.00;;
59024;SDS011;44806;48.008;13.666;2023-07-02T07:54:36;3.15;;;1.25;;
59024;SDS011;44806;48.008;13.666;2023-07-02T07:57:05;3.85;;;1.08;;
59024;SDS011;44806;48.008;13.666;2023-07-02T07:59:32;3.10;;;1.10;;
59024;SDS011;44806;48.008;13.666;2023-07-02T08:01:59;4.05;;;1.25;;
59024;SDS011;44806;48.008;13.666;2023-07-02T08:04:26;3.53;;;1.20;;
59024;SDS011;44806;48.008;13.666;2023-07-02T08:06:53;4.15;;;1.10;;
59024;SDS011;44806;48.008;13.666;2023-07-02T08:09:22;4.40;;;1.38;;
59024;SDS011;44806;48.008;13.666;2023-07-02T08:11:49;4.15;;;1.20;;
59024;SDS011;44806;48.008;13.666;2023-07-02T08:14:18;4.95;;;1.25;;
59024;SDS011;44806;48.008;13.666;2023-07-02T08:16:45;2.92;;;1.08;;
59024;SDS011;44806;48.008;13.666;2023-07-02T08:19:11;3.35;;;1.15;;
59024;SDS011;44806;48.008;13.666;2023-07-02T08:21:38;4.53;;;1.50;;
59024;SDS011;44806;48.008;13.666;2023-07-02T08:24:05;7.13;;;1.20;;
59024;SDS011;44806;48.008;13.666;2023-07-02T08:26:32;4.60;;;1.27;;
59024;SDS011;44806;48.008;13.666;2023-07-02T08:28:59;3.88;;;1.13;;
59024;SDS011;44806;48.008;13.666;2023-07-02T08:31:28;3.60;;;1.20;;
59024;SDS011;44806;48.008;13.666;2023-07-02T08:33:55;5.32;;;1.10;;
59024;SDS011;44806;48.008;13.666;2023-07-02T08:36:21;3.80;;;1.05;;
59024;SDS011;44806;48.008;13.666;2023-07-02T08:38:49;3.60;;;1.10;;
59024;SDS011;44806;48.008;13.666;2023-07-02T08:41:16;4.80;;;1.08;;
59024;SDS011;44806;48.008;13.666;2023-07-02T08:43:43;3.47;;;1.23;;
59024;SDS011;44806;48.008;13.666;2023-07-02T08:46:10;3.50;;;1.30;;
59024;SDS011;44806;48.008;13.666;2023-07-02T08:48:40;5.70;;;1.30;;
59024;SDS011;44806;48.008;13.666;2023-07-02T08:51:07;3.15;;;1.00;;
59024;SDS011;44806;48.008;13.666;2023-07-02T08:53:34;3.35;;;1.20;;
59024;SDS011;44806;48.008;13.666;2023-07-02T08:56:02;4.60;;;1.52;;
59024;SDS011;44806;48.008;13.666;2023-07-02T08:58:30;3.63;;;1.27;;
59024;SDS011;44806;48.008;13.666;2023-07-02T09:01:03;4.10;;;1.50;;
59024;SDS011;44806;48.008;13.666;2023-07-02T09:03:31;5.13;;;1.45;;
59024;SDS011;44806;48.008;13.666;2023-07-02T09:05:59;4.85;;;1.45;;
59024;SDS011;44806;48.008;13.666;2023-07-02T09:08:26;4.22;;;1.42;;
59024;SDS011;44806;48.008;13.666;2023-07-02T09:10:54;3.72;;;1.08;;
59024;SDS011;44806;48.008;13.666;2023-07-02T09:13:41;3.40;;;1.25;;
59024;SDS011;44806;48.008;13.666;2023-07-02T09:16:09;5.47;;;1.75;;
59024;SDS011;44806;48.008;13.666;2023-07-02T09:18:54;13.52;;;1.30;;
59024;SDS011;44806;48.008;13.666;2023-07-02T09:21:25;2.80;;;1.20;;
59024;SDS011;44806;48.008;13.666;2023-07-02T09:23:52;4.18;;;1.50;;
59024;SDS011;44806;48.008;13.666;2023-07-02T09:26:20;7.25;;;1.58;;
59024;SDS011;44806;48.008;13.666;2023-07-02T09:28:47;3.72;;;1.10;;
59024;SDS011;44806;48.008;13.666;2023-07-02T09:31:14;2.45;;;0.98;;
59024;SDS011;44806;48.008;13.666;2023-07-02T09:33:41;3.60;;;1.08;;
59024;SDS011;44806;48.008;13.666;2023-07-02T09:36:08;4.80;;;1.23;;
59024;SDS011;44806;48.008;13.666;2023-07-02T09:38:39;4.07;;;1.50;;
59024;SDS011;44806;48.008;13.666;2023-07-02T09:41:06;4.05;;;1.33;;
59024;SDS011;44806;48.008;13.666;2023-07-02T09:43:33;3.78;;;1.10;;
59024;SDS011;44806;48.008;13.666;2023-07-02T09:46:01;3.17;;;1.33;;
59024;SDS011;44806;48.008;13.666;2023-07-02T09:48:29;4.90;;;1.08;;
59024;SDS011;44806;48.008;13.666;2023-07-02T09:51:00;2.35;;;1.02;;
59024;SDS011;44806;48.008;13.666;2023-07-02T09:53:29;3.90;;;1.50;;
59024;SDS011;44806;48.008;13.666;2023-07-02T09:55:57;3.90;;;1.52;;
59024;SDS011;44806;48.008;13.666;2023-07-02T09:58:25;3.65;;;1.40;;
59024;SDS011;44806;48.008;13.666;2023-07-02T10:00:52;8.73;;;1.63;;
59024;SDS011;44806;48.008;13.666;2023-07-02T10:03:27;5.47;;;1.45;;
59024;SDS011;44806;48.008;13.666;2023-07-02T10:06:02;2.35;;;0.85;;
59024;SDS011;44806;48.008;13.666;2023-07-02T10:08:30;4.68;;;1.58;;
59024;SDS011;44806;48.008;13.666;2023-07-02T10:11:07;7.13;;;1.50;;
59024;SDS011;44806;48.008;13.666;2023-07-02T10:13:38;3.30;;;1.35;;
59024;SDS011;44806;48.008;13.666;2023-07-02T10:16:06;7.07;;;1.88;;
59024;SDS011;44806;48.008;13.666;2023-07-02T10:18:33;6.10;;;1.98;;
59024;SDS011;44806;48.008;13.666;2023-07-02T10:21:12;10.70;;;4.68;;
59024;SDS011;44806;48.008;13.666;2023-07-02T10:23:40;8.05;;;1.67;;
59024;SDS011;44806;48.008;13.666;2023-07-02T10:26:13;5.50;;;1.83;;
59024;SDS011;44806;48.008;13.666;2023-07-02T10:28:41;3.63;;;0.90;;
59024;SDS011;44806;48.008;13.666;2023-07-02T10:31:17;4.10;;;1.42;;
59024;SDS011;44806;48.008;13.666;2023-07-02T10:33:45;3.78;;;1.35;;
59024;SDS011;44806;48.008;13.666;2023-07-02T10:36:19;4.70;;;1.73;;
59024;SDS011;44806;48.008;13.666;2023-07-02T10:38:47;4.75;;;1.20;;
59024;SDS011;44806;48.008;13.666;2023-07-02T10:41:24;3.15;;;1.35;;
59024;SDS011;44806;48.008;13.666;2023-07-02T10:43:51;5.85;;;1.58;;
59024;SDS011;44806;48.008;13.666;2023-07-02T10:46:19;3.70;;;1.33;;
59024;SDS011;44806;48.008;13.666;2023-07-02T10:48:53;4.10;;;1.45;;
59024;SDS011;44806;48.008;13.666;2023-07-02T10:51:20;5.10;;;2.00;;
59024;SDS011;44806;48.008;13.666;2023-07-02T10:53:55;4.80;;;2.30;;
59024;SDS011;44806;48.008;13.666;2023-07-02T10:56:25;2.60;;;0.95;;
59024;SDS011;44806;48.008;13.666;2023-07-02T10:58:52;3.55;;;1.40;;
59024;SDS011;44806;48.008;13.666;2023-07-02T11:01:23;3.08;;;1.10;;
59024;SDS011;44806;48.008;13.666;2023-07-02T11:03:55;4.72;;;1.90;;
59024;SDS011;44806;48.008;13.666;2023-07-02T11:06:24;5.85;;;1.38;;
59024;SDS011;44806;48.008;13.666;2023-07-02T11:08:51;7.13;;;3.03;;
59024;SDS011;44806;48.008;13.666;2023-07-02T11:11:20;4.07;;;1.52;;
59024;SDS011;44806;48.008;13.666;2023-07-02T11:13:50;3.95;;;1.33;;
59024;SDS011;44806;48.008;13.666;2023-07-02T11:16:18;3.53;;;1.10;;
59024;SDS011;44806;48.008;13.666;2023-07-02T11:18:51;4.18;;;1.67;;
59024;SDS011;44806;48.008;13.666;2023-07-02T11:21:19;3.80;;;1.40;;
59024;SDS011;44806;48.008;13.666;2023-07-02T11:23:47;5.15;;;1.60;;
59024;SDS011;44806;48.008;13.666;2023-07-02T11:26:14;4.32;;;1.58;;
59024;SDS011;44806;48.008;13.666;2023-07-02T11:28:48;4.13;;;1.60;;
59024;SDS011;44806;48.008;13.666;2023-07-02T11:31:26;4.22;;;1.40;;
59024;SDS011;44806;48.008;13.666;2023-07-02T11:33:53;4.43;;;1.37;;
59024;SDS011;44806;48.008;13.666;2023-07-02T11:36:21;3.45;;;1.35;;
59024;SDS011;44806;48.008;13.666;2023-07-02T11:38:49;3.70;;;0.90;;
59024;SDS011;44806;48.008;13.666;2023-07-02T11:41:18;4.30;;;1.45;;
59024;SDS011;44806;48.008;13.666;2023-07-02T11:43:45;3.13;;;1.20;;
59024;SDS011;44806;48.008;13.666;2023-07-02T11:46:14;2.80;;;1.20;;
59024;SDS011;44806;48.008;13.666;2023-07-02T11:48:41;6.25;;;1.65;;
59024;SDS011;44806;48.008;13.666;2023-07-02T11:51:08;3.42;;;1.42;;
59024;SDS011;44806;48.008;13.666;2023-07-02T11:53:35;5.22;;;1.60;;
59024;SDS011;44806;48.008;13.666;2023-07-02T11:56:02;4.18;;;1.45;;
59024;SDS011;44806;48.008;13.666;2023-07-02T11:58:29;3.05;;;1.45;;
59024;SDS011;44806;48.008;13.666;2023-07-02T12:00:56;4.72;;;1.42;;
59024;SDS011;44806;48.008;13.666;2023-07-02T12:03:24;4.60;;;1.63;;
59024;SDS011;44806;48.008;13.666;2023-07-02T12:05:51;3.92;;;1.33;;
59024;SDS011;44806;48.008;13.666;2023-07-02T12:08:18;4.70;;;1.30;;
59024;SDS011;44806;48.008;13.666;2023-07-02T12:10:45;3.58;;;1.25;;
59024;SDS011;44806;48.008;13.666;2023-07-02T12:13:12;4.45;;;1.73;;
59024;SDS011;44806;48.008;13.666;2023-07-02T12:15:39;4.28;;;1.80;;
59024;SDS011;44806;48.008;13.666;2023-07-02T12:18:07;3.65;;;1.50;;
59024;SDS011;44806;48.008;13.666;2023-07-02T12:20:36;4.25;;;1.40;;
59024;SDS011;44806;48.008;13.666;2023-07-02T12:23:04;3.92;;;1.35;;
59024;SDS011;44806;48.008;13.666;2023-07-02T12:25:31;4.88;;;1.65;;
59024;SDS011;44806;48.008;13.666;2023-07-02T12:27:58;5.80;;;1.90;;
59024;SDS011;44806;48.008;13.666;2023-07-02T12:30:25;6.32;;;2.25;;
59024;SDS011;44806;48.008;13.666;2023-07-02T12:32:52;5.28;;;1.50;;
59024;SDS011;44806;48.008;13.666;2023-07-02T12:35:19;4.75;;;1.60;;
59024;SDS011;44806;48.008;13.666;2023-07-02T12:37:48;4.82;;;2.03;;
59024;SDS011;44806;48.008;13.666;2023-07-02T12:40:16;4.80;;;1.85;;
59024;SDS011;44806;48.008;13.666;2023-07-02T12:42:44;4.85;;;2.05;;
59024;SDS011;44806;48.008;13.666;2023-07-02T12:45:13;4.68;;;2.22;;
59024;SDS011;44806;48.008;13.666;2023-07-02T12:47:40;5.47;;;2.10;;
59024;SDS011;44806;48.008;13.666;2023-07-02T12:50:09;6.25;;;2.72;;
59024;SDS011;44806;48.008;13.666;2023-07-02T12:52:37;6.35;;;2.35;;
59024;SDS011;44806;48.008;13.666;2023-07-02T12:55:05;6.20;;;2.15;;
59024;SDS011;44806;48.008;13.666;2023-07-02T12:57:33;8.20;;;2.80;;
59024;SDS011;44806;48.008;13.666;2023-07-02T13:00:00;6.18;;;2.50;;
59024;SDS011;44806;48.008;13.666;2023-07-02T13:02:30;7.43;;;3.15;;
59024;SDS011;44806;48.008;13.666;2023-07-02T13:04:57;7.22;;;2.63;;
59024;SDS011;44806;48.008;13.666;2023-07-02T13:07:24;10.38;;;3.33;;
59024;SDS011;44806;48.008;13.666;2023-07-02T13:09:51;7.03;;;2.92;;
59024;SDS011;44806;48.008;13.666;2023-07-02T13:12:19;6.45;;;2.75;;
59024;SDS011;44806;48.008;13.666;2023-07-02T13:14:46;7.07;;;2.85;;
59024;SDS011;44806;48.008;13.666;2023-07-02T13:17:13;6.18;;;2.88;;
59024;SDS011;44806;48.008;13.666;2023-07-02T13:19:40;6.88;;;2.92;;
59024;SDS011;44806;48.008;13.666;2023-07-02T13:22:07;6.28;;;3.05;;
59024;SDS011;44806;48.008;13.666;2023-07-02T13:24:35;6.63;;;2.67;;
59024;SDS011;44806;48.008;13.666;2023-07-02T13:27:06;9.15;;;3.03;;
59024;SDS011;44806;48.008;13.666;2023-07-02T13:29:39;6.35;;;3.10;;
59024;SDS011;44806;48.008;13.666;2023-07-02T13:32:06;6.20;;;3.05;;
59024;SDS011;44806;48.008;13.666;2023-07-02T13:34:34;6.55;;;3.10;;
59024;SDS011;44806;48.008;13.666;2023-07-02T13:37:01;7.38;;;3.63;;
59024;SDS011;44806;48.008;13.666;2023-07-02T13:39:28;6.65;;;2.92;;
59024;SDS011;44806;48.008;13.666;2023-07-02T13:41:55;6.50;;;3.22;;
59024;SDS011;44806;48.008;13.666;2023-07-02T13:44:23;6.03;;;3.00;;
59024;SDS011;44806;48.008;13.666;2023-07-02T13:46:51;7.28;;;3.30;;
59024;SDS011;44806;48.008;13.666;2023-07-02T13:49:18;7.93;;;2.60;;
59024;SDS011;44806;48.008;13.666;2023-07-02T13:51:46;6.47;;;3.22;;
59024;SDS011;44806;48.008;13.666;2023-07-02T13:54:14;6.00;;;3.05;;
59024;SDS011;44806;48.008;13.666;2023-07-02T13:56:43;7.38;;;3.58;;
59024;SDS011;44806;48.008;13.666;2023-07-02T13:59:12;6.93;;;3.30;;
59024;SDS011;44806;48.008;13.666;2023-07-02T14:01:39;7.70;;;3.20;;
59024;SDS011;44806;48.008;13.666;2023-07-02T14:04:06;6.32;;;3.45;;
59024;SDS011;44806;48.008;13.666;2023-07-02T14:06:33;6.75;;;3.45;;
59024;SDS011;44806;48.008;13.666;2023-07-02T14:09:00;8.77;;;3.53;;
59024;SDS011;44806;48.008;13.666;2023-07-02T14:11:27;7.57;;;3.20;;
59024;SDS011;44806;48.008;13.666;2023-07-02T14:13:54;7.03;;;3.80;;
59024;SDS011;44806;48.008;13.666;2023-07-02T14:16:23;6.95;;;3.50;;
59024;SDS011;44806;48.008;13.666;2023-07-02T14:18:50;7.55;;;4.50;;
59024;SDS011;44806;48.008;13.666;2023-07-02T14:21:17;6.45;;;3.00;;
59024;SDS011;44806;48.008;13.666;2023-07-02T14:23:44;7.85;;;4.00;;
59024;SDS011;44806;48.008;13.666;2023-07-02T14:26:11;8.52;;;3.83;;
59024;SDS011;44806;48.008;13.666;2023-07-02T14:28:38;9.80;;;5.10;;
59024;SDS011;44806;48.008;13.666;2023-07-02T14:31:05;7.75;;;3.10;;
59024;SDS011;44806;48.008;13.666;2023-07-02T14:33:35;6.75;;;3.33;;
59024;SDS011;44806;48.008;13.666;2023-07-02T14:36:03;7.38;;;4.13;;
59024;SDS011;44806;48.008;13.666;2023-07-02T14:38:31;7.95;;;3.90;;